Terminal Aerodrome Forecast
Issued by NWS Spokane, WA

Home | Current Version | Previous Version | Text Only | Print | Product List | Glossary On
Versions: 1 2 3 4 5 6 7 8 9 10 11 12 13 14 15 16 17 18
000
FTUS46 KOTX 211131
TAFLWS
TAF
KLWS 211131Z 2112/2212 10005KT P6SM BKN200
     FM212100 11008KT P6SM OVC100
     FM220000 15010KT P6SM -RA BKN050 OVC100
     FM220200 17009KT P6SM OVC080
      TEMPO 2202/2206 -SHRA BKN050 OVC080=

USA.gov is the U.S. government's official web portal to all federal, state and local government web resources and services.